Time;durP1;ratioP1;P1;durP2;ratioP2;P2;SDS_P1;SDS_P2;PMS_P1;PMS_P2;Temp;Humidity;BMP_temperature;BMP_pressure;BME280_temperature;BME280_humidity;BME280_pressure;Samples;Min_cycle;Max_cycle;Signal;HPM_P1;HPM_P2
2023/12/20 00:00:26;;;;;;;126.70;57.45;;;16.20;67.50;;;;;;5058046;28;20088;-42
2023/12/20 00:02:51;;;;;;;126.38;57.67;;;16.20;67.60;;;;;;5053109;28;20851;-39
2023/12/20 00:05:17;;;;;;;124.25;56.35;;;16.10;67.40;;;;;;5057019;28;20119;-39
2023/12/20 00:07:43;;;;;;;126.45;57.28;;;16.10;67.40;;;;;;5049977;28;20109;-39
2023/12/20 00:10:09;;;;;;;127.60;57.28;;;16.10;67.40;;;;;;5058879;28;20033;-39
2023/12/20 00:12:34;;;;;;;128.00;57.55;;;16.10;67.50;;;;;;5059354;28;20112;-39
2023/12/20 00:15:00;;;;;;;125.75;57.28;;;16.00;67.40;;;;;;5063768;28;20755;-40
2023/12/20 00:17:25;;;;;;;125.82;56.97;;;16.00;67.60;;;;;;5058302;28;20044;-39
2023/12/20 00:19:51;;;;;;;125.78;57.15;;;16.00;67.40;;;;;;5059433;28;20032;-39
2023/12/20 00:22:17;;;;;;;126.28;57.35;;;16.00;67.60;;;;;;5056661;28;20180;-38
2023/12/20 00:24:42;;;;;;;125.32;56.70;;;16.00;67.40;;;;;;5057630;28;20040;-39
2023/12/20 00:27:08;;;;;;;125.13;56.47;;;15.90;67.50;;;;;;5057928;28;20898;-38
2023/12/20 00:29:33;;;;;;;125.57;56.53;;;15.90;67.70;;;;;;5058430;28;20524;-40
2023/12/20 00:31:59;;;;;;;124.82;55.85;;;15.90;67.60;;;;;;5055468;28;20064;-40
2023/12/20 00:34:25;;;;;;;124.80;56.65;;;15.80;67.80;;;;;;5058632;28;20135;-41
2023/12/20 00:36:50;;;;;;;125.18;56.88;;;15.80;68.40;;;;;;5046293;28;20503;-38
2023/12/20 00:39:16;;;;;;;125.95;56.65;;;15.80;67.80;;;;;;5050950;28;20037;-38
2023/12/20 00:41:42;;;;;;;125.53;56.88;;;15.80;67.60;;;;;;5053272;28;20608;-39
2023/12/20 00:44:07;;;;;;;124.90;56.67;;;15.80;67.60;;;;;;5039811;28;20582;-39
2023/12/20 00:46:33;;;;;;;124.93;56.45;;;15.70;67.50;;;;;;5046541;28;20045;-39
2023/12/20 00:48:59;;;;;;;126.32;56.70;;;15.70;67.90;;;;;;5050658;28;20099;-38
2023/12/20 00:51:24;;;;;;;124.88;56.50;;;15.70;67.80;;;;;;5059708;28;20896;-39
2023/12/20 00:53:54;;;;;;;125.63;56.63;;;15.70;67.90;;;;;;5053321;28;20033;-42
2023/12/20 00:56:20;;;;;;;126.25;56.38;;;15.70;67.80;;;;;;5058228;28;20128;-40
2023/12/20 00:58:46;;;;;;;125.43;56.13;;;15.70;67.90;;;;;;5056487;28;20029;-39
2023/12/20 01:01:12;;;;;;;127.13;56.47;;;15.60;67.90;;;;;;5053335;28;20104;-42
2023/12/20 01:03:38;;;;;;;123.47;56.30;;;15.60;68.10;;;;;;5057672;28;20045;-39
2023/12/20 01:06:05;;;;;;;124.85;56.60;;;15.60;67.90;;;;;;5057449;28;20450;-39
2023/12/20 01:08:30;;;;;;;125.25;56.92;;;15.60;68.10;;;;;;5056050;28;20051;-42
2023/12/20 01:10:56;;;;;;;124.65;56.05;;;15.60;67.80;;;;;;5053582;28;20033;-38
2023/12/20 01:13:22;;;;;;;125.20;56.58;;;15.60;67.80;;;;;;5058844;28;20092;-40
2023/12/20 01:15:48;;;;;;;125.40;56.67;;;15.60;67.90;;;;;;5058028;28;20041;-39
2023/12/20 01:18:14;;;;;;;125.93;56.83;;;15.50;67.80;;;;;;5057272;28;20567;-39
2023/12/20 01:20:40;;;;;;;124.07;55.80;;;15.50;67.80;;;;;;5055676;28;20059;-40
2023/12/20 01:23:06;;;;;;;124.35;55.63;;;15.50;67.90;;;;;;5054770;28;20537;-40
2023/12/20 01:25:31;;;;;;;123.75;55.58;;;15.50;67.90;;;;;;5054612;28;20037;-38
2023/12/20 01:27:57;;;;;;;124.38;56.53;;;15.50;68.00;;;;;;5052593;28;20073;-38
2023/12/20 01:30:22;;;;;;;124.13;56.22;;;15.50;68.00;;;;;;5054628;28;20036;-40
2023/12/20 01:32:48;;;;;;;124.28;56.33;;;15.50;68.00;;;;;;5053636;28;20507;-38
2023/12/20 01:35:14;;;;;;;124.97;56.13;;;15.50;68.00;;;;;;5051857;28;20091;-39
2023/12/20 01:37:40;;;;;;;124.40;55.92;;;15.40;67.90;;;;;;5057079;28;20037;-38
2023/12/20 01:40:06;;;;;;;122.70;55.40;;;15.40;67.90;;;;;;5054789;28;20033;-39
2023/12/20 01:42:31;;;;;;;124.40;56.33;;;15.40;68.00;;;;;;5056190;28;20054;-38
2023/12/20 01:44:57;;;;;;;124.60;55.65;;;15.40;68.10;;;;;;5057611;28;20693;-39
2023/12/20 01:47:23;;;;;;;122.57;55.70;;;15.40;68.10;;;;;;5053920;28;20037;-42
2023/12/20 01:49:49;;;;;;;124.47;55.70;;;15.40;68.10;;;;;;5055101;28;20718;-39
2023/12/20 01:52:16;;;;;;;123.28;56.28;;;15.40;68.10;;;;;;5055772;28;21061;-38
2023/12/20 01:54:42;;;;;;;123.47;56.25;;;15.40;68.80;;;;;;5053794;28;20029;-38
2023/12/20 01:57:09;;;;;;;122.35;55.30;;;15.40;68.10;;;;;;5057244;28;20035;-39
2023/12/20 01:59:35;;;;;;;122.70;55.50;;;15.40;68.10;;;;;;5054604;28;20033;-39
2023/12/20 02:02:02;;;;;;;125.32;56.00;;;15.30;68.10;;;;;;5059828;28;20041;-39
2023/12/20 02:04:29;;;;;;;123.97;55.65;;;15.30;68.10;;;;;;5057704;28;20037;-38
2023/12/20 02:06:56;;;;;;;123.03;56.15;;;15.30;68.10;;;;;;5060565;28;20077;-38
2023/12/20 02:09:22;;;;;;;124.63;56.45;;;15.30;68.20;;;;;;5061137;28;20064;-41
2023/12/20 02:11:49;;;;;;;123.90;56.30;;;15.20;68.10;;;;;;5053456;28;20063;-38
2023/12/20 02:14:14;;;;;;;124.65;56.30;;;15.20;68.10;;;;;;5062137;28;20052;-38
2023/12/20 02:16:40;;;;;;;122.57;55.67;;;15.20;68.10;;;;;;5042296;28;20041;-40
2023/12/20 02:19:13;;;;;;;123.28;56.13;;;15.20;68.10;;;;;;5058342;28;20079;-38
2023/12/20 02:21:39;;;;;;;125.07;56.00;;;15.20;68.20;;;;;;5060975;28;20156;-38
2023/12/20 02:24:04;;;;;;;124.57;56.03;;;15.20;68.30;;;;;;5055860;28;20590;-38
2023/12/20 02:26:33;;;;;;;123.22;55.72;;;15.20;68.20;;;;;;5057478;28;20056;-38
2023/12/20 02:28:59;;;;;;;124.32;56.40;;;15.10;68.40;;;;;;5060426;28;20060;-41
2023/12/20 02:31:25;;;;;;;122.70;55.90;;;15.20;68.30;;;;;;5056387;28;20554;-40
2023/12/20 02:33:51;;;;;;;123.20;55.92;;;15.20;68.20;;;;;;5058596;28;20086;-40
2023/12/20 02:36:16;;;;;;;123.65;55.97;;;15.10;68.10;;;;;;5061023;28;20143;-39
2023/12/20 02:38:42;;;;;;;124.60;55.85;;;15.10;68.20;;;;;;5057741;28;20079;-38
2023/12/20 02:41:08;;;;;;;126.30;56.15;;;15.10;68.20;;;;;;5056319;28;20079;-40
2023/12/20 02:43:33;;;;;;;122.15;55.35;;;15.10;68.20;;;;;;5054909;28;20154;-39
2023/12/20 02:45:59;;;;;;;123.15;55.45;;;15.10;68.10;;;;;;5063306;28;20127;-39
2023/12/20 02:48:25;;;;;;;122.30;55.75;;;15.00;68.20;;;;;;5063046;28;20037;-38
2023/12/20 02:50:51;;;;;;;122.43;55.63;;;15.00;68.30;;;;;;5058160;28;20045;-39
2023/12/20 02:53:17;;;;;;;123.05;55.95;;;15.00;68.20;;;;;;5058850;28;20115;-38
2023/12/20 02:55:42;;;;;;;122.97;55.63;;;15.00;68.30;;;;;;5062409;28;20088;-38
2023/12/20 02:58:08;;;;;;;123.10;55.42;;;15.00;68.30;;;;;;5061696;28;20794;-38
2023/12/20 03:00:34;;;;;;;123.40;55.58;;;15.00;68.20;;;;;;5055687;28;20707;-39
2023/12/20 03:02:59;;;;;;;123.78;56.28;;;15.00;68.20;;;;;;5058657;28;20048;-39
2023/12/20 03:05:25;;;;;;;122.35;55.33;;;15.00;68.10;;;;;;5057355;28;20037;-39
2023/12/20 03:07:51;;;;;;;124.03;55.65;;;15.00;68.30;;;;;;5058727;28;20384;-39
2023/12/20 03:10:18;;;;;;;122.47;55.55;;;14.90;68.30;;;;;;5063820;28;20553;-40
2023/12/20 03:12:44;;;;;;;124.55;56.03;;;14.90;68.30;;;;;;5060871;28;20040;-39
2023/12/20 03:15:10;;;;;;;123.20;55.17;;;14.90;68.20;;;;;;5059293;28;20041;-41
2023/12/20 03:17:36;;;;;;;123.88;55.50;;;14.90;68.20;;;;;;5061634;28;20163;-39
2023/12/20 03:20:02;;;;;;;122.68;55.95;;;14.90;68.30;;;;;;5061946;28;20028;-38
2023/12/20 03:22:28;;;;;;;122.72;55.60;;;14.90;68.30;;;;;;5060480;28;20835;-39
2023/12/20 03:24:53;;;;;;;121.65;55.65;;;14.90;68.30;;;;;;5054090;28;20430;-40
2023/12/20 03:27:19;;;;;;;122.97;55.05;;;14.80;68.40;;;;;;5059310;28;20040;-39
2023/12/20 03:29:45;;;;;;;121.28;54.78;;;14.80;68.30;;;;;;5059962;28;20036;-38
2023/12/20 03:32:10;;;;;;;123.10;55.25;;;14.80;68.30;;;;;;5058222;28;20041;-40
2023/12/20 03:34:36;;;;;;;121.22;54.80;;;14.80;68.20;;;;;;5060671;28;20406;-38
2023/12/20 03:37:02;;;;;;;121.38;55.22;;;14.80;68.30;;;;;;5061103;28;20872;-39
2023/12/20 03:39:27;;;;;;;120.72;55.00;;;14.80;68.30;;;;;;5057248;28;20111;-39
2023/12/20 03:41:53;;;;;;;122.90;55.47;;;14.80;68.30;;;;;;5058989;28;20049;-38
2023/12/20 03:44:20;;;;;;;121.07;54.70;;;14.80;68.30;;;;;;5057490;28;20091;-39
2023/12/20 03:46:46;;;;;;;124.32;55.88;;;14.80;69.10;;;;;;5061881;28;20120;-39
2023/12/20 03:49:11;;;;;;;121.47;55.50;;;14.80;68.40;;;;;;5060149;28;20039;-39
2023/12/20 03:51:37;;;;;;;122.72;55.78;;;14.80;68.20;;;;;;5062283;28;20052;-39
2023/12/20 03:54:03;;;;;;;121.28;54.72;;;14.70;68.30;;;;;;5056663;28;20176;-39
2023/12/20 03:56:28;;;;;;;121.15;54.88;;;14.70;68.40;;;;;;5060736;28;20723;-39
2023/12/20 03:58:54;;;;;;;121.50;55.47;;;14.80;68.60;;;;;;5058688;28;20025;-39
2023/12/20 04:01:20;;;;;;;120.63;54.47;;;14.70;68.60;;;;;;5060529;28;20137;-38
2023/12/20 04:03:45;;;;;;;123.25;55.80;;;14.70;68.50;;;;;;5062031;28;20041;-38
2023/12/20 04:06:17;;;;;;;121.20;54.78;;;14.70;68.40;;;;;;5062229;28;20036;-39
2023/12/20 04:08:43;;;;;;;123.75;55.25;;;14.70;68.50;;;;;;5058046;28;20041;-40
2023/12/20 04:11:08;;;;;;;122.50;55.13;;;14.70;68.50;;;;;;5061556;28;20051;-39
2023/12/20 04:13:34;;;;;;;122.78;55.40;;;14.70;68.60;;;;;;5057821;28;20037;-39
2023/12/20 04:15:59;;;;;;;123.75;56.05;;;14.70;68.70;;;;;;5058609;28;20036;-38
2023/12/20 04:18:25;;;;;;;121.57;54.85;;;14.60;68.70;;;;;;5064768;28;20435;-40
2023/12/20 04:20:51;;;;;;;121.07;54.78;;;14.60;68.70;;;;;;5061062;28;20318;-41
2023/12/20 04:23:17;;;;;;;122.50;55.33;;;14.60;68.80;;;;;;5053773;28;21028;-39
2023/12/20 04:25:43;;;;;;;121.22;55.17;;;14.60;68.60;;;;;;5052883;28;20930;-39
2023/12/20 04:28:08;;;;;;;122.43;55.53;;;14.60;69.50;;;;;;5059865;28;20515;-38
2023/12/20 04:30:35;;;;;;;122.60;55.40;;;14.60;68.80;;;;;;5061019;28;20114;-40
2023/12/20 04:33:00;;;;;;;120.75;54.63;;;14.60;68.80;;;;;;5058978;28;20420;-38
2023/12/20 04:35:26;;;;;;;123.97;55.47;;;14.60;69.00;;;;;;5056321;28;20087;-39
2023/12/20 04:37:51;;;;;;;123.13;54.97;;;14.60;68.90;;;;;;5060115;28;20040;-40
2023/12/20 04:40:17;;;;;;;122.15;55.45;;;14.60;68.90;;;;;;5057894;28;20037;-39
2023/12/20 04:42:43;;;;;;;122.30;55.25;;;14.50;68.90;;;;;;5052808;28;20383;-39
2023/12/20 04:45:09;;;;;;;121.63;55.03;;;14.50;68.90;;;;;;5055388;28;20034;-38
2023/12/20 04:47:34;;;;;;;122.35;54.97;;;14.50;69.00;;;;;;5058356;28;20147;-39
2023/12/20 04:50:02;;;;;;;121.97;54.75;;;14.50;69.00;;;;;;5059530;28;20660;-39
2023/12/20 04:52:27;;;;;;;122.85;55.65;;;14.50;69.00;;;;;;5053750;28;20041;-38
2023/12/20 04:54:53;;;;;;;122.20;55.20;;;14.50;69.10;;;;;;5062576;28;20789;-38
2023/12/20 04:57:19;;;;;;;121.13;54.88;;;14.50;69.00;;;;;;5055391;28;20044;-38
2023/12/20 04:59:44;;;;;;;124.57;55.92;;;14.50;69.00;;;;;;5055350;28;20589;-38
2023/12/20 05:02:10;;;;;;;120.93;55.08;;;14.50;69.00;;;;;;5051437;28;20077;-39
2023/12/20 05:04:35;;;;;;;121.22;55.33;;;14.50;69.00;;;;;;5058100;28;20028;-39
2023/12/20 05:07:01;;;;;;;120.63;54.92;;;14.50;69.00;;;;;;5057627;28;20099;-39
2023/12/20 05:09:27;;;;;;;122.32;55.13;;;14.40;69.00;;;;;;5055898;28;20064;-39
2023/12/20 05:11:52;;;;;;;120.82;54.72;;;14.40;69.10;;;;;;5056936;28;20090;-39
2023/12/20 05:14:19;;;;;;;121.10;54.88;;;14.40;69.10;;;;;;5054588;28;20096;-40
2023/12/20 05:16:45;;;;;;;124.90;55.72;;;14.40;69.00;;;;;;5057426;28;20025;-39
2023/12/20 05:19:10;;;;;;;122.45;55.65;;;14.40;69.00;;;;;;5057090;28;20037;-38
2023/12/20 05:21:36;;;;;;;123.25;55.05;;;14.40;69.00;;;;;;5056520;28;20896;-40
2023/12/20 05:24:02;;;;;;;123.95;55.38;;;14.40;69.00;;;;;;5057617;28;20037;-39
2023/12/20 05:26:29;;;;;;;121.72;54.95;;;14.30;69.00;;;;;;5052154;28;20040;-38
2023/12/20 05:28:55;;;;;;;122.05;54.75;;;14.40;69.20;;;;;;5059605;28;20041;-40
2023/12/20 05:31:20;;;;;;;120.25;54.80;;;14.40;69.10;;;;;;5057220;28;20045;-38
2023/12/20 05:33:46;;;;;;;121.78;55.05;;;14.30;69.10;;;;;;5051715;28;20532;-39
2023/12/20 05:36:13;;;;;;;121.28;55.08;;;14.30;69.20;;;;;;5053606;28;20037;-38
2023/12/20 05:38:39;;;;;;;121.55;54.88;;;14.30;69.00;;;;;;5058726;28;20816;-38
2023/12/20 05:41:04;;;;;;;122.00;55.58;;;14.40;69.00;;;;;;5057464;28;20076;-37
2023/12/20 05:43:30;;;;;;;122.72;55.15;;;14.40;69.30;;;;;;5054731;28;20087;-38
2023/12/20 05:45:56;;;;;;;121.35;54.78;;;14.40;69.40;;;;;;5056584;28;20059;-39
2023/12/20 05:48:21;;;;;;;123.00;55.30;;;14.40;69.50;;;;;;5057531;28;20507;-38
2023/12/20 05:50:49;;;;;;;122.68;54.78;;;14.40;69.20;;;;;;5057642;28;20095;-38
2023/12/20 05:53:14;;;;;;;120.97;54.97;;;14.40;69.50;;;;;;5051002;28;20419;-38
2023/12/20 05:55:40;;;;;;;121.60;55.22;;;14.30;69.20;;;;;;5052386;28;20041;-38
2023/12/20 05:58:06;;;;;;;122.22;55.22;;;14.30;69.50;;;;;;5057669;28;20396;-37
2023/12/20 06:00:31;;;;;;;122.03;55.15;;;14.30;69.50;;;;;;5049369;28;20041;-37
2023/12/20 06:02:57;;;;;;;122.80;56.45;;;14.30;69.50;;;;;;5048698;28;20124;-38
2023/12/20 06:05:22;;;;;;;123.20;54.70;;;14.30;69.60;;;;;;5052872;28;20059;-38
2023/12/20 06:07:50;;;;;;;121.47;54.78;;;14.30;69.60;;;;;;5048134;28;20484;-39
2023/12/20 06:10:16;;;;;;;120.55;54.95;;;14.30;69.80;;;;;;5056748;28;20083;-38
2023/12/20 06:12:42;;;;;;;122.55;55.17;;;14.40;69.80;;;;;;5051406;28;20562;-37
2023/12/20 06:15:08;;;;;;;121.82;55.30;;;14.40;69.90;;;;;;5053636;28;20043;-38
2023/12/20 06:17:34;;;;;;;121.22;55.60;;;14.30;69.90;;;;;;5051549;28;20634;-39
2023/12/20 06:20:01;;;;;;;122.80;54.97;;;14.40;70.00;;;;;;5054749;28;20037;-39
2023/12/20 06:22:26;;;;;;;122.43;55.00;;;14.40;70.10;;;;;;5053368;28;20049;-38
2023/12/20 06:24:52;;;;;;;120.93;54.45;;;14.30;70.30;;;;;;5050227;28;20103;-38
2023/12/20 06:27:17;;;;;;;122.20;54.97;;;14.30;70.40;;;;;;5048911;28;20041;-38
2023/12/20 06:29:44;;;;;;;120.88;55.03;;;14.30;70.20;;;;;;5053056;28;20529;-39
2023/12/20 06:32:10;;;;;;;121.85;55.70;;;14.30;70.30;;;;;;5049342;28;20037;-38
2023/12/20 06:34:36;;;;;;;121.82;55.60;;;14.30;70.50;;;;;;5048931;28;20105;-38
2023/12/20 06:37:02;;;;;;;122.22;55.50;;;14.20;70.50;;;;;;5043724;28;20646;-38
2023/12/20 06:39:28;;;;;;;123.78;55.22;;;14.30;70.90;;;;;;5045532;28;20048;-38
2023/12/20 06:41:53;;;;;;;122.15;55.63;;;14.30;71.10;;;;;;5043809;28;20439;-37
2023/12/20 06:44:19;;;;;;;124.55;56.47;;;14.30;70.60;;;;;;5042043;28;20057;-38
2023/12/20 06:46:44;;;;;;;122.10;55.83;;;14.30;70.90;;;;;;5055390;28;20033;-41
2023/12/20 06:49:10;;;;;;;125.13;55.15;;;14.30;70.90;;;;;;5060815;28;20036;-39
2023/12/20 06:51:36;;;;;;;126.95;55.58;;;14.20;70.70;;;;;;5061317;28;20049;-37
2023/12/20 06:54:02;;;;;;;124.88;55.30;;;14.20;70.50;;;;;;5055502;28;20041;-37
2023/12/20 06:56:28;;;;;;;125.20;55.47;;;14.20;70.80;;;;;;5055671;28;20047;-37
2023/12/20 06:58:53;;;;;;;121.50;54.88;;;14.20;70.70;;;;;;5054189;28;20041;-38
2023/12/20 07:01:19;;;;;;;123.75;55.40;;;14.20;70.60;;;;;;5057203;28;20044;-37
2023/12/20 07:03:45;;;;;;;124.82;55.50;;;14.20;71.40;;;;;;5058744;28;20037;-37
2023/12/20 07:06:11;;;;;;;126.13;54.70;;;14.20;70.60;;;;;;5057832;28;20095;-37
2023/12/20 07:08:36;;;;;;;120.93;54.25;;;14.20;70.70;;;;;;5056892;28;20037;-37
2023/12/20 07:11:02;;;;;;;121.93;55.38;;;14.20;70.50;;;;;;5055575;28;20032;-37
2023/12/20 07:13:28;;;;;;;122.00;54.97;;;14.20;70.50;;;;;;5058127;28;20037;-38
2023/12/20 07:15:53;;;;;;;120.40;54.92;;;14.10;70.40;;;;;;5057009;28;20071;-36
2023/12/20 07:18:19;;;;;;;123.05;54.88;;;14.10;70.40;;;;;;5060834;28;20038;-37
2023/12/20 07:20:45;;;;;;;120.80;55.13;;;14.10;70.40;;;;;;5056634;28;20037;-38
2023/12/20 07:23:11;;;;;;;123.00;55.55;;;14.10;70.30;;;;;;5059760;28;20056;-37
2023/12/20 07:25:36;;;;;;;121.20;55.10;;;14.10;70.30;;;;;;5051993;28;20029;-38
2023/12/20 07:28:02;;;;;;;122.47;55.17;;;14.10;70.30;;;;;;5059471;28;20041;-37
2023/12/20 07:30:28;;;;;;;122.32;55.70;;;14.10;70.20;;;;;;5057245;28;20570;-38
2023/12/20 07:32:54;;;;;;;121.13;55.10;;;14.10;70.20;;;;;;5059395;28;20044;-37
2023/12/20 07:35:19;;;;;;;124.93;55.35;;;14.10;70.10;;;;;;5060998;28;20055;-38
2023/12/20 07:37:45;;;;;;;123.25;55.33;;;14.10;70.20;;;;;;5059416;28;20490;-38
2023/12/20 07:40:11;;;;;;;122.50;55.42;;;14.10;70.10;;;;;;5061225;28;20029;-39
2023/12/20 07:42:37;;;;;;;122.78;54.67;;;14.10;70.00;;;;;;5056213;28;20045;-40
2023/12/20 07:45:03;;;;;;;122.72;54.90;;;14.10;69.90;;;;;;5060530;28;20041;-37
2023/12/20 07:47:29;;;;;;;120.60;55.33;;;14.10;70.00;;;;;;5057992;28;20145;-40
2023/12/20 07:49:54;;;;;;;123.18;55.83;;;14.10;70.00;;;;;;5057060;28;20965;-37
2023/12/20 07:52:22;;;;;;;119.05;54.47;;;14.10;69.80;;;;;;5062960;28;20044;-37
2023/12/20 07:54:48;;;;;;;120.45;54.75;;;14.10;69.80;;;;;;5057900;28;20148;-37
2023/12/20 07:57:13;;;;;;;121.60;54.70;;;14.10;69.90;;;;;;5058147;28;20110;-37
2023/12/20 07:59:39;;;;;;;123.00;55.00;;;14.10;69.80;;;;;;5058264;28;20116;-38
2023/12/20 08:02:05;;;;;;;123.47;55.55;;;14.10;69.90;;;;;;5056387;28;20091;-37
2023/12/20 08:04:31;;;;;;;123.05;55.75;;;14.10;69.80;;;;;;5047754;28;20154;-36
2023/12/20 08:06:56;;;;;;;124.70;55.50;;;14.20;69.90;;;;;;5049482;28;20124;-38
2023/12/20 08:09:22;;;;;;;121.82;55.13;;;14.40;69.10;;;;;;5041543;28;20021;-34
2023/12/20 08:11:48;;;;;;;125.97;55.63;;;14.60;68.90;;;;;;5057581;28;20052;-37
2023/12/20 08:14:15;;;;;;;121.68;54.83;;;14.70;69.00;;;;;;5058521;28;20111;-37
2023/12/20 08:16:41;;;;;;;125.03;55.13;;;14.80;68.50;;;;;;5052804;28;20033;-38
2023/12/20 08:19:06;;;;;;;124.97;55.88;;;14.90;67.90;;;;;;5056893;28;20029;-35
2023/12/20 08:21:32;;;;;;;123.40;55.10;;;14.90;67.50;;;;;;5058639;28;20094;-37
2023/12/20 08:23:58;;;;;;;122.60;55.15;;;15.00;67.30;;;;;;5054388;28;20068;-36
2023/12/20 08:26:24;;;;;;;124.07;55.75;;;15.00;67.10;;;;;;5054473;28;20489;-36
2023/12/20 08:28:50;;;;;;;123.03;55.75;;;15.00;66.30;;;;;;5057160;28;20041;-36
2023/12/20 08:31:17;;;;;;;126.07;55.90;;;15.00;66.40;;;;;;5057637;28;20517;-37
2023/12/20 08:33:44;;;;;;;123.90;55.40;;;15.00;66.60;;;;;;5059281;28;20040;-37
2023/12/20 08:36:10;;;;;;;125.80;55.95;;;15.00;66.50;;;;;;5061546;28;20033;-36
2023/12/20 08:38:36;;;;;;;127.68;55.72;;;15.10;66.40;;;;;;5053372;28;20037;-35
2023/12/20 08:41:03;;;;;;;124.00;55.45;;;15.10;66.40;;;;;;5059779;28;20096;-37
2023/12/20 08:43:28;;;;;;;125.80;56.00;;;15.10;66.00;;;;;;5057872;28;20901;-37
2023/12/20 08:45:54;;;;;;;127.80;55.03;;;15.20;66.50;;;;;;5058164;28;20091;-37
2023/12/20 08:48:20;;;;;;;126.70;55.90;;;15.20;65.90;;;;;;5052782;28;20083;-38
2023/12/20 08:50:47;;;;;;;129.68;55.95;;;15.20;65.70;;;;;;5055183;28;20511;-38
2023/12/20 08:53:12;;;;;;;125.13;55.72;;;15.30;65.80;;;;;;5056240;28;20593;-39
2023/12/20 08:55:38;;;;;;;124.45;55.40;;;15.20;65.60;;;;;;5056453;28;20041;-38
2023/12/20 08:58:06;;;;;;;125.93;55.58;;;15.20;65.50;;;;;;5051784;28;20037;-35
2023/12/20 09:00:32;;;;;;;126.32;56.03;;;15.30;65.90;;;;;;5055647;28;20033;-35
2023/12/20 09:02:57;;;;;;;127.75;57.20;;;15.30;65.60;;;;;;5054881;28;20080;-35
2023/12/20 09:05:23;;;;;;;129.90;56.08;;;15.30;65.60;;;;;;5060519;28;20065;-35
2023/12/20 09:07:49;;;;;;;127.03;55.80;;;15.30;65.60;;;;;;5062877;28;20147;-36
2023/12/20 09:10:14;;;;;;;128.23;56.80;;;15.30;65.60;;;;;;5053191;28;20529;-36
2023/12/20 09:12:40;;;;;;;125.20;55.65;;;15.30;65.50;;;;;;5049982;28;20122;-37
2023/12/20 09:15:06;;;;;;;124.80;55.75;;;15.40;65.50;;;;;;5060166;28;20033;-36
2023/12/20 09:17:32;;;;;;;124.85;55.85;;;15.40;65.40;;;;;;5057674;28;20901;-37
2023/12/20 09:19:59;;;;;;;129.38;56.17;;;15.40;65.40;;;;;;5056644;28;20028;-36
2023/12/20 09:22:25;;;;;;;128.88;56.70;;;15.40;65.30;;;;;;5052546;28;20053;-38
2023/12/20 09:24:51;;;;;;;131.60;56.35;;;15.40;65.20;;;;;;5050660;28;20095;-39
2023/12/20 09:27:17;;;;;;;133.00;56.28;;;15.40;65.10;;;;;;5051800;28;20042;-38
2023/12/20 09:29:43;;;;;;;126.65;55.40;;;15.50;65.20;;;;;;5059525;28;20034;-37
2023/12/20 09:32:08;;;;;;;125.63;55.83;;;15.40;65.10;;;;;;5060196;28;20072;-37
2023/12/20 09:34:34;;;;;;;127.40;56.35;;;15.40;65.30;;;;;;5060815;28;22027;-37
2023/12/20 09:36:59;;;;;;;124.38;56.30;;;15.30;65.40;;;;;;5056416;28;20037;-39
2023/12/20 09:39:25;;;;;;;127.07;56.03;;;15.30;65.70;;;;;;5048975;28;20092;-38
2023/12/20 09:42:01;;;;;;;124.75;56.05;;;15.30;65.50;;;;;;5055515;28;20096;-36
2023/12/20 09:44:27;;;;;;;125.28;55.20;;;15.40;65.50;;;;;;5052638;28;20125;-38
2023/12/20 09:46:55;;;;;;;129.50;56.25;;;15.40;65.40;;;;;;5059580;28;20052;-42
2023/12/20 09:49:21;;;;;;;125.70;55.80;;;15.40;65.40;;;;;;5052366;28;20033;-36
2023/12/20 09:51:48;;;;;;;125.55;56.15;;;15.40;65.30;;;;;;5056111;28;20037;-36
2023/12/20 09:54:17;;;;;;;125.63;55.95;;;15.40;65.30;;;;;;5058013;28;20448;-37
2023/12/20 09:56:46;;;;;;;124.55;55.75;;;15.40;65.20;;;;;;5052945;28;20562;-36
2023/12/20 09:59:12;;;;;;;127.57;55.63;;;15.40;65.10;;;;;;5054316;28;20042;-36
2023/12/20 10:01:42;;;;;;;126.30;55.97;;;15.40;64.90;;;;;;5054998;28;20045;-37
2023/12/20 10:04:12;;;;;;;124.25;55.45;;;15.30;65.00;;;;;;5056092;28;20045;-38
2023/12/20 10:06:42;;;;;;;125.32;55.85;;;15.40;65.10;;;;;;5048939;28;20041;-37
2023/12/20 10:09:09;;;;;;;125.87;55.67;;;15.50;64.80;;;;;;5056010;28;20517;-36
2023/12/20 10:11:39;;;;;;;125.25;55.53;;;15.50;64.70;;;;;;5057302;28;20045;-37
2023/12/20 10:14:06;;;;;;;124.43;56.10;;;15.40;64.70;;;;;;5052977;28;20582;-35
2023/12/20 10:16:32;;;;;;;127.78;55.55;;;15.50;64.80;;;;;;5057009;28;20543;-36
2023/12/20 10:18:59;;;;;;;129.05;56.15;;;15.40;64.90;;;;;;5054733;28;20033;-36
2023/12/20 10:21:26;;;;;;;128.48;55.92;;;15.40;65.00;;;;;;5053889;28;20149;-46
2023/12/20 10:23:55;;;;;;;128.73;56.53;;;15.50;65.70;;;;;;5060011;28;20505;-40
2023/12/20 10:26:25;;;;;;;124.00;56.20;;;15.50;65.00;;;;;;5056866;28;20068;-38
2023/12/20 10:28:53;;;;;;;124.07;55.50;;;15.60;64.60;;;;;;5059578;28;20041;-43
2023/12/20 10:31:27;;;;;;;126.22;56.55;;;15.60;64.70;;;;;;5060125;28;20151;-38
2023/12/20 10:33:53;;;;;;;126.05;56.85;;;15.60;64.40;;;;;;5054136;28;20045;-42
2023/12/20 10:36:19;;;;;;;127.35;56.00;;;15.70;64.40;;;;;;5058360;28;20052;-38
2023/12/20 10:38:48;;;;;;;126.13;56.13;;;15.70;64.20;;;;;;5055178;28;20223;-41
2023/12/20 10:41:17;;;;;;;125.07;55.80;;;15.80;63.70;;;;;;5060855;28;20044;-39
2023/12/20 10:43:43;;;;;;;126.00;56.53;;;15.80;63.70;;;;;;5055833;28;20054;-39
2023/12/20 10:46:09;;;;;;;127.72;56.35;;;15.80;63.60;;;;;;5063391;28;20518;-39
2023/12/20 10:48:35;;;;;;;126.30;56.33;;;15.80;63.70;;;;;;5056924;28;20148;-38
2023/12/20 10:51:01;;;;;;;129.70;56.70;;;15.90;63.40;;;;;;5057450;28;20073;-39
2023/12/20 10:53:27;;;;;;;127.88;56.97;;;16.00;63.10;;;;;;5056013;28;20183;-41
2023/12/20 10:55:56;;;;;;;126.28;56.33;;;16.00;62.80;;;;;;5052657;28;20562;-39
2023/12/20 10:58:23;;;;;;;127.32;56.88;;;16.00;62.70;;;;;;5060224;28;20048;-43
2023/12/20 11:00:53;;;;;;;129.43;56.83;;;16.10;62.60;;;;;;5050821;28;20033;-40
2023/12/20 11:03:24;;;;;;;127.75;56.90;;;16.10;62.70;;;;;;5056790;28;20075;-38
2023/12/20 11:06:05;;;;;;;131.05;56.83;;;16.10;62.30;;;;;;5057167;28;20044;-41
2023/12/20 11:08:47;;;;;;;125.25;55.95;;;16.10;62.60;;;;;;5062378;28;20135;-40
2023/12/20 11:11:37;;;;;;;126.63;56.70;;;16.10;62.50;;;;;;5056780;28;20056;-42
2023/12/20 11:14:11;;;;;;;127.20;55.85;;;16.00;62.80;;;;;;5056944;28;20514;-40
2023/12/20 11:16:41;;;;;;;126.80;56.45;;;16.00;63.30;;;;;;5065388;28;20033;-43
2023/12/20 11:19:07;;;;;;;128.00;56.60;;;16.10;63.40;;;;;;5057954;28;20087;-40
2023/12/20 11:21:33;;;;;;;129.95;57.03;;;16.10;63.90;;;;;;5056174;28;20128;-44
2023/12/20 11:24:00;;;;;;;127.55;56.65;;;16.10;63.90;;;;;;5056279;28;20034;-46
2023/12/20 11:26:29;;;;;;;130.05;57.13;;;16.10;63.70;;;;;;5057281;28;20053;-40
2023/12/20 11:29:34;;;;;;;128.68;56.97;;;16.00;63.80;;;;;;5055640;28;20071;-44
2023/12/20 11:32:03;;;;;;;129.02;56.97;;;16.00;63.10;;;;;;5057628;28;20127;-40
2023/12/20 11:34:33;;;;;;;127.50;56.75;;;16.00;64.00;;;;;;5053331;28;20151;-41
2023/12/20 11:37:00;;;;;;;129.23;57.05;;;16.10;64.10;;;;;;5052812;28;20045;-42
2023/12/20 11:39:28;;;;;;;127.10;56.85;;;16.10;63.90;;;;;;5057892;28;20032;-41
2023/12/20 11:41:56;;;;;;;126.80;56.85;;;16.10;63.90;;;;;;5054430;28;20062;-40
2023/12/20 11:44:22;;;;;;;127.90;56.47;;;16.10;63.80;;;;;;5058811;28;20080;-40
2023/12/20 11:46:47;;;;;;;130.43;56.55;;;16.10;63.80;;;;;;5055513;28;20033;-44
2023/12/20 11:49:13;;;;;;;127.38;56.38;;;16.10;63.40;;;;;;5056191;28;20033;-39
2023/12/20 11:51:43;;;;;;;127.88;56.63;;;16.10;63.40;;;;;;5052502;28;20469;-43
2023/12/20 11:54:11;;;;;;;125.28;56.10;;;16.10;63.50;;;;;;5055162;28;20119;-40
2023/12/20 11:56:36;;;;;;;127.35;56.92;;;16.10;63.60;;;;;;5055896;28;20118;-41
2023/12/20 11:59:03;;;;;;;129.48;57.40;;;16.20;63.60;;;;;;5054306;28;20132;-45
2023/12/20 12:01:28;;;;;;;129.48;57.08;;;16.20;63.00;;;;;;5056869;28;20649;-40
2023/12/20 12:04:04;;;;;;;128.30;56.92;;;16.10;63.00;;;;;;5057458;28;20041;-39
2023/12/20 12:06:30;;;;;;;127.53;57.42;;;16.10;63.20;;;;;;5047291;28;20123;-41
2023/12/20 12:08:55;;;;;;;126.05;56.80;;;16.20;63.20;;;;;;5049145;28;20044;-38
2023/12/20 12:11:22;;;;;;;129.50;56.75;;;16.20;63.10;;;;;;5056983;28;20218;-38
2023/12/20 12:13:49;;;;;;;126.75;56.92;;;16.20;62.80;;;;;;5055769;28;20037;-39